Galloway Township, New Jersey
Current Conditions -  °F | °C
As of 1:54 PM on Tuesday 21 Oct 2014 (Local Time) from KACY Reporting Station
Scattered Clouds Scattered Clouds  
Wind Chill: 68°   Ceiling: Unl
Heat Index: 68°   Visibility: 10mi
Dew Point: 53°   Wind: 7mph
Humidity: 59%   Direction: 210°SSW
Pressure: 29.81"   Gusts: NA
Location:  39.473°N, 74.4957°W
Report Text: KACY 211754Z 21006KT 10SM FEW033 SCT050 20/12 A2981 RMK AO2 SLP095 T02000117 10206 20106 58016
Loading
Personal Weather Stations






























Interactive Weather Map
Tropical Storm Tracking
New forecast layout! Learn more

10-Day Weather Forecast

Advertisements
Track Severe Weather on mobile